Time;durP1;ratioP1;P1;durP2;ratioP2;P2;SDS_P1;SDS_P2;PMS_P1;PMS_P2;Temp;Humidity;BMP_temperature;BMP_pressure;BME280_temperature;BME280_humidity;BME280_pressure;Samples;Min_cycle;Max_cycle;Signal;HPM_P1;HPM_P2
2022/07/30 00:02:13;;;;;;;7.80;4.90;;;;;16.80;101146.00;;;;5028921;28;20229;-71
2022/07/30 00:05:00;;;;;;;6.73;4.97;;;;;16.80;101141.00;;;;5024876;28;20256;-72
2022/07/30 00:10:58;;;;;;;5.30;4.53;;;;;16.70;101137.00;;;;5338724;23;20319;-67
2022/07/30 00:13:46;;;;;;;5.50;4.30;;;;;16.60;101141.00;;;;4958708;28;20237;-68
2022/07/30 00:16:33;;;;;;;5.93;4.70;;;;;16.50;101136.00;;;;4943391;28;20227;-68
2022/07/30 00:19:19;;;;;;;7.17;4.80;;;;;16.40;101130.00;;;;4945240;28;20409;-68
2022/07/30 00:22:07;;;;;;;8.40;5.00;;;;;16.40;101132.00;;;;4926688;29;20359;-68
2022/07/30 00:24:53;;;;;;;8.37;4.60;;;;;16.30;101132.00;;;;4928608;29;20307;-68
2022/07/30 00:27:39;;;;;;;8.70;4.50;;;;;16.40;101126.00;;;;4924379;29;20236;-66
2022/07/30 00:30:26;;;;;;;5.60;4.60;;;;;16.40;101134.00;;;;4925903;29;20288;-68
2022/07/30 00:33:13;;;;;;;6.37;4.67;;;;;16.30;101131.00;;;;4936550;28;20306;-68
2022/07/30 00:35:59;;;;;;;6.57;4.83;;;;;16.30;101132.00;;;;4936018;28;20246;-68
2022/07/30 00:38:46;;;;;;;5.03;4.53;;;;;16.30;101133.00;;;;4932837;28;20743;-68
2022/07/30 00:41:32;;;;;;;8.67;5.23;;;;;16.20;101138.00;;;;4923807;29;20252;-68
2022/07/30 00:44:18;;;;;;;5.40;4.80;;;;;16.20;101140.00;;;;4927574;29;20783;-68
2022/07/30 00:47:06;;;;;;;6.07;5.00;;;;;16.10;101137.00;;;;4929170;28;20290;-68
2022/07/30 00:49:52;;;;;;;10.43;5.00;;;;;16.00;101127.00;;;;4928086;29;20835;-68
2022/07/30 00:52:39;;;;;;;6.87;4.47;;;;;16.00;101122.00;;;;4920816;29;20299;-67
2022/07/30 00:55:25;;;;;;;5.80;4.80;;;;;16.00;101133.00;;;;4925476;29;20276;-68
2022/07/30 00:58:12;;;;;;;5.70;5.00;;;;;16.00;101119.00;;;;4928206;29;20271;-68
2022/07/30 01:00:58;;;;;;;7.20;4.93;;;;;16.00;101123.00;;;;4919569;28;20353;-68
2022/07/30 01:03:46;;;;;;;7.80;5.43;;;;;15.80;101112.00;;;;4932727;28;20661;-68
2022/07/30 01:06:33;;;;;;;6.90;4.90;;;;;15.90;101106.00;;;;4913538;29;20315;-68
2022/07/30 01:09:19;;;;;;;7.57;5.50;;;;;15.70;101113.00;;;;4936667;28;20236;-68
2022/07/30 01:12:08;;;;;;;5.40;4.67;;;;;15.70;101107.00;;;;4920131;29;20241;-68
2022/07/30 01:14:56;;;;;;;6.37;4.57;;;;;15.70;101103.00;;;;4923611;28;20306;-68
2022/07/30 01:17:43;;;;;;;9.87;4.90;;;;;15.60;101101.00;;;;4927797;28;20253;-67
2022/07/30 01:20:45;;;;;;;5.23;4.73;;;;;15.70;101106.00;;;;4924612;29;20239;-69
2022/07/30 01:23:39;;;;;;;5.87;4.70;;;;;15.60;101103.00;;;;4922528;29;20714;-68
2022/07/30 01:26:31;;;;;;;6.50;4.17;;;;;15.70;101106.00;;;;4935127;28;20724;-68
2022/07/30 01:29:18;;;;;;;4.90;4.40;;;;;15.60;101102.00;;;;4928997;29;20292;-69
2022/07/30 01:32:08;;;;;;;6.13;4.63;;;;;15.60;101112.00;;;;4929137;28;20249;-69
2022/07/30 01:34:56;;;;;;;5.73;4.73;;;;;15.50;101100.00;;;;4931702;28;20241;-68
2022/07/30 01:37:44;;;;;;;5.87;4.70;;;;;15.50;101110.00;;;;4925570;29;20334;-69
2022/07/30 01:40:32;;;;;;;5.90;4.97;;;;;15.40;101103.00;;;;4926148;29;20879;-69
2022/07/30 01:43:22;;;;;;;6.53;5.00;;;;;15.40;101101.00;;;;4928931;29;20229;-66
2022/07/30 01:46:09;;;;;;;6.43;4.83;;;;;15.30;101114.00;;;;4927724;29;20250;-68
2022/07/30 01:48:57;;;;;;;11.33;5.70;;;;;15.30;101103.00;;;;4925891;29;20308;-68
2022/07/30 01:51:47;;;;;;;5.40;4.90;;;;;15.30;101099.00;;;;4924380;29;20234;-68
2022/07/30 01:54:34;;;;;;;6.87;5.20;;;;;15.40;101107.00;;;;4923169;29;20228;-68
2022/07/30 01:57:22;;;;;;;7.17;4.87;;;;;15.30;101095.00;;;;4923063;29;20839;-68
2022/07/30 02:00:11;;;;;;;7.67;5.23;;;;;15.30;101090.00;;;;4921631;29;20243;-68
2022/07/30 02:02:58;;;;;;;5.77;4.70;;;;;15.20;101090.00;;;;4927081;29;20249;-68
2022/07/30 02:05:50;;;;;;;5.80;5.20;;;;;15.20;101104.00;;;;4929315;29;20233;-68
2022/07/30 02:08:40;;;;;;;7.23;4.90;;;;;15.00;101102.00;;;;4921372;29;20237;-68
2022/07/30 02:14:38;;;;;;;6.90;5.30;;;;;15.00;101100.00;;;;4921455;29;20338;-68
2022/07/30 02:17:29;;;;;;;7.40;5.23;;;;;15.00;101112.00;;;;4921426;29;20280;-67
2022/07/30 02:20:27;;;;;;;6.43;5.47;;;;;15.00;101110.00;;;;4927625;29;20252;-67
2022/07/30 02:23:16;;;;;;;7.53;4.90;;;;;15.10;101110.00;;;;4928954;29;20229;-68
2022/07/30 02:26:03;;;;;;;6.43;5.00;;;;;15.20;101112.00;;;;4928205;29;20730;-68
2022/07/30 02:28:54;;;;;;;7.30;4.97;;;;;15.20;101109.00;;;;4932645;29;20241;-68
2022/07/30 02:31:41;;;;;;;5.47;4.73;;;;;15.00;101117.00;;;;4928430;28;20373;-69
2022/07/30 02:34:32;;;;;;;7.77;4.43;;;;;15.00;101116.00;;;;4930967;29;20260;-68
2022/07/30 02:37:22;;;;;;;6.47;4.93;;;;;15.00;101124.00;;;;4927221;29;20913;-68
2022/07/30 02:40:28;;;;;;;7.53;4.63;;;;;15.00;101134.00;;;;4932158;29;20610;-68
2022/07/30 02:43:15;;;;;;;5.40;4.90;;;;;15.00;101128.00;;;;4929535;29;20282;-68
2022/07/30 02:46:02;;;;;;;5.90;4.80;;;;;15.10;101128.00;;;;4930460;29;20266;-68
2022/07/30 02:48:51;;;;;;;5.90;4.43;;;;;14.90;101126.00;;;;4929962;29;20233;-68
2022/07/30 02:51:39;;;;;;;5.40;4.63;;;;;15.00;101125.00;;;;4919597;29;20245;-68
2022/07/30 02:54:27;;;;;;;6.47;5.07;;;;;15.10;101130.00;;;;4926082;28;20279;-69
2022/07/30 02:57:18;;;;;;;7.07;4.97;;;;;15.00;101132.00;;;;4929868;29;20240;-68
2022/07/30 03:00:05;;;;;;;7.13;5.10;;;;;14.90;101126.00;;;;4929939;29;20288;-68
2022/07/30 03:02:53;;;;;;;5.40;4.90;;;;;14.80;101133.00;;;;4924636;29;20249;-68
2022/07/30 03:05:43;;;;;;;7.13;5.33;;;;;14.80;101128.00;;;;4927019;29;20670;-68
2022/07/30 03:08:32;;;;;;;8.70;5.20;;;;;14.80;101131.00;;;;4930192;29;20236;-67
2022/07/30 03:11:19;;;;;;;7.73;5.30;;;;;14.70;101119.00;;;;4926932;28;20249;-69
2022/07/30 03:14:06;;;;;;;5.77;5.17;;;;;14.70;101124.00;;;;4923490;29;20229;-69
2022/07/30 03:16:56;;;;;;;9.67;6.33;;;;;14.80;101125.00;;;;4933234;28;20822;-68
2022/07/30 03:19:45;;;;;;;6.10;5.33;;;;;14.80;101123.00;;;;4930656;28;20237;-67
2022/07/30 03:22:34;;;;;;;7.03;5.47;;;;;14.80;101136.00;;;;4925731;29;20243;-69
2022/07/30 03:25:25;;;;;;;6.70;5.50;;;;;14.80;101131.00;;;;4923318;29;20236;-66
2022/07/30 03:28:13;;;;;;;6.70;5.67;;;;;14.70;101127.00;;;;4929636;29;20378;-69
2022/07/30 03:30:59;;;;;;;6.50;5.80;;;;;14.80;101124.00;;;;4921926;29;20244;-69
2022/07/30 03:33:47;;;;;;;7.00;5.70;;;;;14.70;101131.00;;;;4931947;28;20245;-68
2022/07/30 03:36:34;;;;;;;8.97;6.47;;;;;14.60;101134.00;;;;4924561;29;20232;-69
2022/07/30 03:39:22;;;;;;;8.57;6.10;;;;;14.60;101125.00;;;;4919556;28;20390;-69
2022/07/30 03:42:10;;;;;;;7.47;6.47;;;;;14.60;101138.00;;;;4923747;29;20240;-70
2022/07/30 03:44:57;;;;;;;8.10;6.60;;;;;14.50;101135.00;;;;4930828;29;20228;-69
2022/07/30 03:47:44;;;;;;;8.87;6.77;;;;;14.60;101142.00;;;;4933627;28;20268;-69
2022/07/30 03:50:31;;;;;;;8.23;6.57;;;;;14.70;101140.00;;;;4931068;28;20840;-69
2022/07/30 03:53:19;;;;;;;9.13;5.63;;;;;14.50;101146.00;;;;4924642;29;20236;-67
2022/07/30 03:56:06;;;;;;;7.43;6.13;;;;;14.50;101144.00;;;;4928624;29;20241;-68
2022/07/30 03:58:54;;;;;;;10.27;7.40;;;;;14.40;101156.00;;;;4929252;29;20716;-69
2022/07/30 04:01:40;;;;;;;10.37;8.60;;;;;14.60;101150.00;;;;4924997;29;20285;-69
2022/07/30 04:04:27;;;;;;;11.47;8.23;;;;;14.50;101157.00;;;;4929857;29;20233;-69
2022/07/30 04:07:13;;;;;;;11.77;8.60;;;;;14.50;101162.00;;;;4928316;29;20296;-68
2022/07/30 04:09:59;;;;;;;10.27;8.40;;;;;14.60;101152.00;;;;4927440;29;20248;-69
2022/07/30 04:12:46;;;;;;;10.03;8.43;;;;;14.50;101157.00;;;;4926772;29;20229;-69
2022/07/30 04:15:41;;;;;;;10.90;8.03;;;;;14.40;101151.00;;;;4918399;29;20223;-68
2022/07/30 04:18:50;;;;;;;10.07;7.80;;;;;14.40;101155.00;;;;4928092;28;20710;-69
2022/07/30 04:21:39;;;;;;;8.07;6.87;;;;;14.50;101153.00;;;;4919684;29;20237;-69
2022/07/30 04:24:28;;;;;;;8.50;6.87;;;;;14.40;101158.00;;;;4923427;29;20737;-69
2022/07/30 04:27:15;;;;;;;8.70;6.97;;;;;14.40;101163.00;;;;4929368;29;20313;-70
2022/07/30 04:30:02;;;;;;;9.00;7.57;;;;;14.40;101165.00;;;;4927318;28;20244;-70
2022/07/30 04:32:50;;;;;;;10.40;7.03;;;;;14.50;101164.00;;;;4929601;29;21038;-67
2022/07/30 04:35:37;;;;;;;8.30;6.60;;;;;14.40;101160.00;;;;4924300;29;20727;-70
2022/07/30 04:38:37;;;;;;;9.47;7.23;;;;;14.50;101171.00;;;;4923103;28;20281;-70
2022/07/30 04:41:23;;;;;;;9.50;8.07;;;;;14.60;101171.00;;;;4922747;28;20312;-70
2022/07/30 04:44:10;;;;;;;17.70;8.37;;;;;14.60;101175.00;;;;4932066;28;20241;-69
2022/07/30 04:46:56;;;;;;;13.80;9.00;;;;;14.70;101184.00;;;;4929430;29;20254;-70
2022/07/30 04:49:45;;;;;;;10.73;9.03;;;;;14.70;101181.00;;;;4932752;28;20235;-69
2022/07/30 04:52:33;;;;;;;11.20;8.93;;;;;14.80;101189.00;;;;4928581;29;20244;-70
2022/07/30 04:55:21;;;;;;;13.97;9.77;;;;;14.80;101193.00;;;;4928757;28;20311;-69
2022/07/30 04:58:09;;;;;;;16.27;11.30;;;;;14.90;101190.00;;;;4927932;29;20261;-69
2022/07/30 05:00:57;;;;;;;12.80;10.30;;;;;14.90;101189.00;;;;4925715;29;20240;-69
2022/07/30 05:03:44;;;;;;;14.33;11.60;;;;;15.00;101187.00;;;;4926061;29;20717;-68
2022/07/30 05:06:32;;;;;;;17.13;11.87;;;;;15.10;101195.00;;;;4918613;29;20307;-69
2022/07/30 05:09:19;;;;;;;17.27;13.00;;;;;15.30;101205.00;;;;4923619;29;20237;-68
2022/07/30 05:12:06;;;;;;;16.70;12.77;;;;;15.30;101203.00;;;;4928780;28;20249;-69
2022/07/30 05:14:53;;;;;;;20.83;13.40;;;;;15.40;101207.00;;;;4927520;29;20373;-69
2022/07/30 05:17:39;;;;;;;22.67;14.37;;;;;15.50;101206.00;;;;4934493;28;20304;-68
2022/07/30 05:20:26;;;;;;;22.17;15.27;;;;;15.60;101222.00;;;;4918960;29;20819;-68
2022/07/30 05:23:13;;;;;;;19.50;14.67;;;;;15.60;101223.00;;;;4930093;28;20308;-69
2022/07/30 05:25:59;;;;;;;19.80;14.90;;;;;15.70;101229.00;;;;4920223;28;20257;-70
2022/07/30 05:28:45;;;;;;;21.37;15.23;;;;;15.80;101225.00;;;;4936264;28;20230;-70
2022/07/30 05:31:39;;;;;;;19.60;14.67;;;;;15.90;101231.00;;;;4927677;28;20250;-69
2022/07/30 05:34:26;;;;;;;22.93;14.63;;;;;15.90;101237.00;;;;4916066;28;20354;-69
2022/07/30 05:37:12;;;;;;;22.20;15.33;;;;;16.10;101232.00;;;;4935816;28;20247;-69
2022/07/30 05:39:59;;;;;;;19.93;15.03;;;;;16.20;101231.00;;;;4920082;29;20251;-66
2022/07/30 05:42:49;;;;;;;20.93;15.17;;;;;16.30;101237.00;;;;4932978;28;20235;-68
2022/07/30 05:45:35;;;;;;;21.93;15.27;;;;;16.40;101231.00;;;;4924954;29;20715;-68
2022/07/30 05:48:22;;;;;;;23.70;16.23;;;;;16.60;101243.00;;;;4928175;29;20613;-67
2022/07/30 05:51:08;;;;;;;21.57;15.70;;;;;16.70;101247.00;;;;4926124;29;20335;-69
2022/07/30 05:53:55;;;;;;;23.83;15.40;;;;;16.80;101250.00;;;;4923816;29;20353;-70
2022/07/30 05:56:43;;;;;;;23.33;16.13;;;;;16.80;101247.00;;;;4931673;29;20304;-69
2022/07/30 05:59:29;;;;;;;24.10;16.93;;;;;16.90;101241.00;;;;4922062;29;20283;-70
2022/07/30 06:02:16;;;;;;;27.63;17.03;;;;;17.00;101246.00;;;;4934216;28;20578;-71
2022/07/30 06:05:03;;;;;;;24.57;15.10;;;;;17.00;101245.00;;;;4936869;28;20240;-70
2022/07/30 06:07:49;;;;;;;24.80;16.00;;;;;17.00;101236.00;;;;4929540;29;20364;-70
2022/07/30 06:10:35;;;;;;;25.50;16.90;;;;;17.10;101244.00;;;;4926792;29;20242;-70
2022/07/30 06:13:23;;;;;;;26.10;18.17;;;;;17.20;101242.00;;;;4925040;29;20461;-69
2022/07/30 06:16:10;;;;;;;27.83;16.53;;;;;17.30;101248.00;;;;4925989;29;20243;-68
2022/07/30 06:18:56;;;;;;;25.60;16.80;;;;;17.30;101253.00;;;;4927365;29;20239;-71
2022/07/30 06:21:42;;;;;;;24.90;15.93;;;;;17.40;101255.00;;;;4929575;28;20292;-70
2022/07/30 06:24:48;;;;;;;28.10;16.87;;;;;17.40;101253.00;;;;4928119;29;20706;-70
2022/07/30 06:27:35;;;;;;;26.03;17.00;;;;;17.40;101260.00;;;;4929864;29;20241;-70
2022/07/30 06:30:27;;;;;;;27.80;16.97;;;;;17.50;101252.00;;;;4929747;29;20370;-69
2022/07/30 06:33:16;;;;;;;26.73;17.23;;;;;17.50;101271.00;;;;4921919;29;20245;-71
2022/07/30 06:36:02;;;;;;;29.63;19.40;;;;;17.60;101280.00;;;;4930615;29;20292;-70
2022/07/30 06:38:48;;;;;;;28.83;17.47;;;;;17.70;101277.00;;;;4931477;29;20233;-71
2022/07/30 06:41:34;;;;;;;24.83;16.70;;;;;17.70;101280.00;;;;4927534;28;20240;-71
2022/07/30 06:44:21;;;;;;;26.03;16.80;;;;;17.70;101279.00;;;;4929575;29;20972;-71
2022/07/30 06:47:09;;;;;;;29.33;17.10;;;;;17.80;101284.00;;;;4932144;28;20325;-70
2022/07/30 06:49:56;;;;;;;29.17;17.40;;;;;17.70;101276.00;;;;4919990;28;20673;-70
2022/07/30 06:52:42;;;;;;;26.70;16.93;;;;;17.70;101280.00;;;;4929540;29;20271;-70
2022/07/30 06:55:29;;;;;;;25.30;16.43;;;;;17.90;101279.00;;;;4919352;29;20249;-70
2022/07/30 06:58:15;;;;;;;26.10;16.40;;;;;17.90;101286.00;;;;4927982;28;20224;-71
2022/07/30 07:01:11;;;;;;;27.30;15.70;;;;;17.90;101279.00;;;;4929507;29;20299;-70
2022/07/30 07:03:58;;;;;;;23.10;15.87;;;;;17.90;101278.00;;;;4937334;28;20232;-71
2022/07/30 07:06:45;;;;;;;23.07;15.30;;;;;17.90;101279.00;;;;4926620;29;20312;-71
2022/07/30 07:09:31;;;;;;;23.57;15.07;;;;;18.00;101286.00;;;;4924644;29;20233;-72
2022/07/30 07:12:24;;;;;;;23.27;14.43;;;;;18.00;101278.00;;;;4921400;29;20240;-72
2022/07/30 07:15:10;;;;;;;21.10;14.43;;;;;18.10;101281.00;;;;4930175;29;20236;-71
2022/07/30 07:17:56;;;;;;;23.60;14.27;;;;;18.10;101284.00;;;;4930545;29;20738;-70
2022/07/30 07:20:47;;;;;;;22.30;14.67;;;;;18.20;101280.00;;;;4934747;28;20244;-72
2022/07/30 07:23:33;;;;;;;21.10;14.23;;;;;18.10;101291.00;;;;4921961;29;20236;-71
2022/07/30 07:26:27;;;;;;;21.00;13.43;;;;;18.10;101290.00;;;;4930688;29;20312;-71
2022/07/30 07:29:13;;;;;;;21.17;13.53;;;;;18.20;101287.00;;;;4928253;29;20232;-71
2022/07/30 07:32:00;;;;;;;21.37;13.63;;;;;18.30;101284.00;;;;4920128;29;20240;-71
2022/07/30 07:34:52;;;;;;;20.57;13.63;;;;;18.40;101295.00;;;;4926671;29;20236;-71
2022/07/30 07:37:40;;;;;;;20.97;13.50;;;;;18.40;101285.00;;;;4930067;29;20236;-71
2022/07/30 07:40:27;;;;;;;21.83;14.37;;;;;18.40;101289.00;;;;4930563;29;20236;-71
2022/07/30 07:43:13;;;;;;;19.37;12.43;;;;;18.40;101296.00;;;;4927652;28;20737;-71
2022/07/30 07:45:59;;;;;;;21.33;13.30;;;;;18.40;101296.00;;;;4927988;29;20248;-72
2022/07/30 07:48:45;;;;;;;18.70;12.80;;;;;18.50;101300.00;;;;4932670;28;20621;-72
2022/07/30 07:51:32;;;;;;;20.73;12.87;;;;;18.50;101291.00;;;;4926866;29;20731;-71
2022/07/30 07:54:35;;;;;;;19.23;11.80;;;;;18.60;101296.00;;;;4919713;29;20699;-71
2022/07/30 07:57:23;;;;;;;20.00;12.80;;;;;18.70;101297.00;;;;4928083;29;20253;-71
2022/07/30 08:00:13;;;;;;;17.77;11.77;;;;;18.90;101293.00;;;;4923819;28;20336;-71
2022/07/30 08:02:59;;;;;;;18.40;11.93;;;;;19.00;101294.00;;;;4929925;28;20241;-72
2022/07/30 08:05:45;;;;;;;17.63;11.83;;;;;19.00;101288.00;;;;4927338;29;20325;-73
2022/07/30 08:08:52;;;;;;;19.63;12.00;;;;;19.10;101294.00;;;;4925883;28;20678;-72
2022/07/30 08:11:40;;;;;;;19.97;11.83;;;;;19.10;101296.00;;;;4923524;29;20253;-72
2022/07/30 08:14:26;;;;;;;18.00;11.27;;;;;19.20;101295.00;;;;4922577;28;20663;-71
2022/07/30 08:17:13;;;;;;;15.50;11.07;;;;;19.20;101306.00;;;;4922707;29;20769;-72
2022/07/30 08:20:00;;;;;;;20.47;12.83;;;;;19.30;101315.00;;;;4926979;29;20240;-72
2022/07/30 08:22:46;;;;;;;18.83;12.07;;;;;19.30;101304.00;;;;4921776;29;20252;-71
2022/07/30 08:25:32;;;;;;;18.67;12.60;;;;;19.40;101307.00;;;;4921602;29;20308;-72
2022/07/30 08:28:19;;;;;;;16.17;12.23;;;;;19.60;101298.00;;;;4921479;29;20370;-72
2022/07/30 08:31:21;;;;;;;17.57;11.90;;;;;19.60;101301.00;;;;4921150;29;20227;-72
2022/07/30 08:34:08;;;;;;;17.97;11.70;;;;;19.70;101300.00;;;;4927376;28;20745;-72
2022/07/30 08:36:54;;;;;;;17.73;11.13;;;;;19.70;101304.00;;;;4927219;29;20300;-74
2022/07/30 08:39:40;;;;;;;19.93;11.70;;;;;19.70;101306.00;;;;4926398;29;20728;-74
2022/07/30 08:42:27;;;;;;;14.43;10.63;;;;;19.80;101302.00;;;;4925844;28;20733;-74
2022/07/30 08:45:17;;;;;;;14.33;10.23;;;;;20.10;101303.00;;;;4925403;29;20303;-73
2022/07/30 08:48:08;;;;;;;17.17;11.03;;;;;20.30;101295.00;;;;4926425;29;20244;-74
2022/07/30 08:51:00;;;;;;;13.63;10.87;;;;;20.60;101300.00;;;;4923994;29;20241;-75
2022/07/30 08:53:47;;;;;;;14.40;10.63;;;;;20.70;101290.00;;;;4926248;29;20243;-71
2022/07/30 08:56:34;;;;;;;18.60;10.57;;;;;21.00;101306.00;;;;4927528;29;20225;-69
2022/07/30 08:59:23;;;;;;;16.33;10.27;;;;;21.00;101303.00;;;;4923240;29;20239;-69
2022/07/30 09:02:32;;;;;;;12.27;8.77;;;;;21.10;101306.00;;;;4927730;28;20237;-70
2022/07/30 09:05:18;;;;;;;12.77;8.47;;;;;21.20;101309.00;;;;4928673;28;20232;-71
2022/07/30 09:08:04;;;;;;;15.67;9.57;;;;;21.10;101306.00;;;;4927333;28;20233;-72
2022/07/30 09:10:54;;;;;;;14.13;9.10;;;;;21.20;101299.00;;;;4926009;28;20247;-72
2022/07/30 09:13:43;;;;;;;12.13;8.80;;;;;21.30;101306.00;;;;4926614;29;20312;-71
2022/07/30 09:16:29;;;;;;;12.40;8.87;;;;;21.60;101308.00;;;;4928252;28;20241;-70
2022/07/30 09:19:18;;;;;;;14.40;8.50;;;;;21.80;101310.00;;;;4926879;29;20302;-73
2022/07/30 09:22:05;;;;;;;12.77;9.17;;;;;21.80;101296.00;;;;4930499;28;20321;-73
2022/07/30 09:24:51;;;;;;;12.67;8.40;;;;;21.90;101307.00;;;;4925920;29;20663;-71
2022/07/30 09:27:45;;;;;;;12.30;7.93;;;;;21.80;101306.00;;;;4925677;29;20230;-72
2022/07/30 09:30:44;;;;;;;9.10;7.37;;;;;22.20;101308.00;;;;4929859;28;20242;-71
2022/07/30 09:33:34;;;;;;;12.30;7.73;;;;;22.30;101310.00;;;;4925579;29;20251;-72
2022/07/30 09:36:22;;;;;;;9.33;7.40;;;;;22.40;101303.00;;;;4924325;29;20229;-73
2022/07/30 09:39:09;;;;;;;11.07;8.17;;;;;22.60;101304.00;;;;4924686;29;20242;-72
2022/07/30 09:41:55;;;;;;;13.00;7.73;;;;;22.70;101298.00;;;;4927505;28;20234;-74
2022/07/30 09:44:42;;;;;;;11.00;7.53;;;;;22.90;101302.00;;;;4926493;29;20304;-72
2022/07/30 09:47:32;;;;;;;11.33;7.57;;;;;23.00;101296.00;;;;4925999;28;20303;-72
2022/07/30 09:50:20;;;;;;;9.83;8.10;;;;;23.10;101292.00;;;;4921841;29;20236;-72
2022/07/30 09:53:21;;;;;;;10.27;6.67;;;;;23.20;101303.00;;;;4930024;28;20255;-70
2022/07/30 09:56:25;;;;;;;13.23;9.87;;;;;22.80;101303.00;;;;4930315;28;20231;-71
2022/07/30 09:59:28;;;;;;;10.77;7.87;;;;;23.00;101306.00;;;;4923011;29;20231;-69
2022/07/30 10:02:21;;;;;;;10.30;5.77;;;;;23.20;101308.00;;;;4923941;29;20232;-70
2022/07/30 10:05:14;;;;;;;9.10;6.27;;;;;23.20;101307.00;;;;4927589;28;20724;-70
2022/07/30 10:08:06;;;;;;;7.63;5.60;;;;;23.40;101303.00;;;;4925097;29;20788;-71
2022/07/30 10:11:03;;;;;;;10.33;6.60;;;;;23.50;101302.00;;;;4925224;28;20760;-70
2022/07/30 10:13:56;;;;;;;11.30;6.67;;;;;23.60;101302.00;;;;4928941;28;21932;-71
2022/07/30 10:16:43;;;;;;;8.67;5.80;;;;;23.80;101303.00;;;;4924263;29;20233;-71
2022/07/30 10:19:32;;;;;;;7.27;5.20;;;;;24.10;101299.00;;;;4925503;29;20233;-71
2022/07/30 10:22:27;;;;;;;8.83;5.33;;;;;24.20;101306.00;;;;4926434;29;20637;-71
2022/07/30 10:25:17;;;;;;;10.43;5.13;;;;;24.40;101304.00;;;;4926002;29;20733;-70
2022/07/30 10:28:08;;;;;;;5.07;4.57;;;;;24.50;101315.00;;;;4925726;29;20288;-70
2022/07/30 10:30:56;;;;;;;8.00;4.77;;;;;24.40;101303.00;;;;4926568;29;20237;-69
2022/07/30 10:33:45;;;;;;;9.50;4.90;;;;;24.30;101304.00;;;;4930396;29;20311;-70
2022/07/30 10:36:34;;;;;;;12.30;5.17;;;;;24.60;101302.00;;;;4935664;28;20236;-70
2022/07/30 10:39:25;;;;;;;6.70;4.13;;;;;24.90;101309.00;;;;4930415;29;20232;-71
2022/07/30 10:42:25;;;;;;;7.63;4.70;;;;;24.90;101306.00;;;;4930789;28;20336;-71
2022/07/30 10:45:23;;;;;;;9.90;4.83;;;;;24.90;101308.00;;;;4927085;28;20313;-70
2022/07/30 10:48:10;;;;;;;6.77;4.40;;;;;25.00;101310.00;;;;4933095;28;20240;-70
2022/07/30 10:50:58;;;;;;;8.00;5.10;;;;;25.20;101299.00;;;;4928167;29;20241;-70
2022/07/30 10:53:47;;;;;;;6.27;4.20;;;;;25.40;101295.00;;;;4934346;28;20232;-68
2022/07/30 10:56:33;;;;;;;9.40;4.40;;;;;25.50;101301.00;;;;4930392;28;20296;-71
2022/07/30 10:59:19;;;;;;;5.67;4.10;;;;;25.60;101304.00;;;;4930696;29;20706;-71
2022/07/30 11:02:10;;;;;;;7.70;4.00;;;;;25.70;101305.00;;;;4929507;28;20233;-70
2022/07/30 11:05:22;;;;;;;7.53;3.57;;;;;25.70;101297.00;;;;4930076;28;20233;-71
2022/07/30 11:08:32;;;;;;;6.40;3.80;;;;;25.60;101292.00;;;;4922598;29;20231;-70
2022/07/30 11:11:45;;;;;;;4.80;3.70;;;;;25.80;101294.00;;;;4928437;29;20240;-71
2022/07/30 11:14:58;;;;;;;6.27;3.50;;;;;25.30;101316.00;;;;4924718;29;20249;-71
2022/07/30 11:18:07;;;;;;;4.53;3.40;;;;;25.00;101306.00;;;;4924640;29;20826;-70
2022/07/30 11:21:15;;;;;;;7.50;3.40;;;;;25.50;101293.00;;;;4936795;28;20244;-72
2022/07/30 11:24:02;;;;;;;6.23;3.83;;;;;25.60;101308.00;;;;4927760;28;20248;-72
2022/07/30 11:26:51;;;;;;;4.83;3.43;;;;;25.90;101307.00;;;;4929478;29;20308;-69
2022/07/30 11:29:41;;;;;;;5.73;3.40;;;;;26.10;101284.00;;;;4927226;28;20733;-71
2022/07/30 11:32:36;;;;;;;6.07;3.23;;;;;25.90;101305.00;;;;4925277;28;20300;-71
2022/07/30 11:35:26;;;;;;;8.83;3.50;;;;;26.00;101296.00;;;;4922806;29;20731;-70
2022/07/30 11:38:20;;;;;;;6.90;3.10;;;;;26.10;101296.00;;;;4934973;28;20240;-71
2022/07/30 11:41:11;;;;;;;5.27;3.30;;;;;26.10;101303.00;;;;4930046;29;20348;-71
2022/07/30 11:44:28;;;;;;;4.70;3.20;;;;;26.60;101300.00;;;;4927444;28;20232;-70
2022/07/30 11:47:15;;;;;;;4.20;2.87;;;;;26.80;101305.00;;;;4930617;29;20440;-70
2022/07/30 11:50:02;;;;;;;5.88;2.60;;;;;26.90;101300.00;;;;4927746;29;20248;-71
2022/07/30 11:52:51;;;;;;;4.03;2.90;;;;;27.00;101287.00;;;;4929785;29;20285;-71
2022/07/30 11:55:38;;;;;;;5.13;2.77;;;;;26.90;101294.00;;;;4928059;28;20240;-70
2022/07/30 11:58:31;;;;;;;5.35;2.53;;;;;26.90;101293.00;;;;4917224;29;20241;-71
2022/07/30 12:01:17;;;;;;;13.10;2.70;;;;;26.90;101298.00;;;;4932611;28;20311;-72
2022/07/30 12:04:04;;;;;;;3.63;2.80;;;;;26.80;101284.00;;;;4929937;28;20241;-71
2022/07/30 12:06:51;;;;;;;4.07;2.75;;;;;26.90;101284.00;;;;4927937;29;20228;-73
2022/07/30 12:09:38;;;;;;;5.15;2.47;;;;;27.10;101293.00;;;;4926187;29;20362;-74
2022/07/30 12:12:28;;;;;;;2.87;2.40;;;;;27.00;101289.00;;;;4926262;29;20233;-74
2022/07/30 12:15:30;;;;;;;5.47;2.50;;;;;27.60;101303.00;;;;4929060;29;20264;-72
2022/07/30 12:18:24;;;;;;;4.35;2.30;;;;;27.80;101297.00;;;;4927329;29;20232;-72
2022/07/30 12:21:14;;;;;;;4.07;2.53;;;;;27.90;101299.00;;;;4929533;28;20731;-71
2022/07/30 12:24:06;;;;;;;5.07;2.63;;;;;27.90;101299.00;;;;4927928;29;20237;-72
2022/07/30 12:27:04;;;;;;;3.53;1.97;;;;;27.70;101307.00;;;;4928351;29;20234;-72
2022/07/30 12:29:51;;;;;;;3.75;2.00;;;;;27.40;101295.00;;;;4928874;28;20309;-74
2022/07/30 12:32:38;;;;;;;4.15;2.00;;;;;27.20;101295.00;;;;4925987;28;20233;-75
2022/07/30 12:35:41;;;;;;;3.88;2.17;;;;;26.80;101302.00;;;;4920666;29;20606;-73
2022/07/30 12:38:29;;;;;;;3.95;1.90;;;;;26.80;101302.00;;;;4928152;28;20308;-74
2022/07/30 12:41:15;;;;;;;2.33;2.10;;;;;27.30;101288.00;;;;4927753;28;20291;-75
2022/07/30 12:44:03;;;;;;;2.83;2.20;;;;;27.50;101294.00;;;;4930821;28;20240;-74
2022/07/30 12:46:49;;;;;;;2.60;2.17;;;;;27.70;101288.00;;;;4925380;29;20319;-73
2022/07/30 12:49:35;;;;;;;2.75;2.00;;;;;27.90;101286.00;;;;4927214;28;20237;-74
2022/07/30 12:52:36;;;;;;;2.95;1.95;;;;;28.10;101281.00;;;;4930441;28;20239;-73
2022/07/30 12:55:31;;;;;;;4.97;1.90;;;;;27.60;101284.00;;;;4926679;29;20380;-73
2022/07/30 12:58:17;;;;;;;1.98;1.80;;;;;27.50;101281.00;;;;4922225;28;20278;-74
2022/07/30 13:01:05;;;;;;;4.28;1.85;;;;;28.10;101289.00;;;;4928807;28;20723;-72
2022/07/30 13:04:04;;;;;;;2.47;1.90;;;;;28.20;101281.00;;;;4932704;28;20224;-74
2022/07/30 13:07:04;;;;;;;2.53;1.60;;;;;28.20;101282.00;;;;4921171;29;20235;-75
2022/07/30 13:10:06;;;;;;;2.70;1.85;;;;;28.20;101291.00;;;;4929170;29;20353;-75
2022/07/30 13:12:52;;;;;;;2.53;1.90;;;;;28.10;101283.00;;;;4936102;28;20243;-74
2022/07/30 13:15:40;;;;;;;1.83;1.63;;;;;28.20;101293.00;;;;4929415;29;20316;-73
2022/07/30 13:18:41;;;;;;;2.10;1.90;;;;;28.60;101293.00;;;;4928948;28;20412;-74
2022/07/30 13:21:27;;;;;;;3.47;1.70;;;;;28.90;101286.00;;;;4929976;28;20245;-74
2022/07/30 13:24:13;;;;;;;2.95;1.85;;;;;29.20;101287.00;;;;4926960;29;20244;-71
2022/07/30 13:27:03;;;;;;;38.72;5.00;;;;;29.30;101293.00;;;;4921071;29;20277;-74
2022/07/30 13:29:50;;;;;;;2.92;2.20;;;;;28.90;101301.00;;;;4921905;29;20233;-74
2022/07/30 13:32:36;;;;;;;3.65;2.25;;;;;29.00;101313.00;;;;4927819;28;20373;-75
2022/07/30 13:35:24;;;;;;;3.08;2.10;;;;;28.80;101295.00;;;;4921442;29;20243;-74
2022/07/30 13:38:12;;;;;;;4.95;1.83;;;;;28.90;101294.00;;;;4924361;29;20233;-76
2022/07/30 13:40:58;;;;;;;2.50;1.90;;;;;28.90;101297.00;;;;4926478;28;20377;-75
2022/07/30 13:43:48;;;;;;;3.90;2.20;;;;;28.60;101304.00;;;;4919687;29;20274;-73
2022/07/30 13:46:34;;;;;;;6.95;2.30;;;;;28.30;101306.00;;;;4923230;29;20640;-74
2022/07/30 13:49:20;;;;;;;3.80;1.90;;;;;28.50;101302.00;;;;4923928;29;20225;-75
2022/07/30 13:52:08;;;;;;;2.72;2.10;;;;;28.50;101308.00;;;;4925729;28;20261;-73
2022/07/30 13:54:55;;;;;;;3.38;2.00;;;;;28.60;101305.00;;;;4930179;28;20241;-74
2022/07/30 13:57:41;;;;;;;2.60;2.13;;;;;28.90;101295.00;;;;4926820;29;20232;-74